createdAt,value
2022-08-22T00:02:41.709Z,32.59
2022-08-22T00:02:56.791Z,32.76
2022-08-22T00:03:03.230Z,30.00
2022-08-22T00:03:03.863Z,35.33
2022-08-22T00:03:12.822Z,35.69
2022-08-22T10:11:33.568Z,27.13
2022-08-22T10:14:15.428Z,27.39
2022-08-22T10:17:07.873Z,25.23
2022-08-22T10:20:13.455Z,28.35
2022-08-22T10:22:45.161Z,30.39
2022-08-22T10:25:28.465Z,26.28
2022-08-22T10:28:10.630Z,25.11
2022-08-22T10:31:04.997Z,27.54
2022-08-22T10:33:39.868Z,25.33
2022-08-22T10:36:35.273Z,26.54
2022-08-22T10:39:10.902Z,24.42
2022-08-22T10:42:24.640Z,26.93
2022-08-22T10:45:08.483Z,23.71
2022-08-22T10:48:08.627Z,25.44
2022-08-22T10:50:47.801Z,24.72
2022-08-22T10:53:33.664Z,24.11
2022-08-22T10:56:23.349Z,25.47
2022-08-22T10:58:56.313Z,23.31
2022-08-22T11:01:41.670Z,22.65
2022-08-22T11:04:28.243Z,22.89
2022-08-22T11:07:13.467Z,22.50
2022-08-22T11:09:43.541Z,22.61
2022-08-22T11:12:21.222Z,20.93
2022-08-22T11:15:34.382Z,23.46
2022-08-22T11:18:16.904Z,22.28
2022-08-22T11:20:53.308Z,21.29
2022-08-22T11:23:22.764Z,20.88
2022-08-22T11:25:56.299Z,21.00
2022-08-22T11:28:58.173Z,23.70
2022-08-22T11:32:13.044Z,23.47
2022-08-22T11:34:44.756Z,21.38
2022-08-22T11:37:43.316Z,22.80
2022-08-22T11:40:26.911Z,22.00
2022-08-22T11:43:26.616Z,22.34
2022-08-22T11:45:58.119Z,20.88
2022-08-22T11:48:39.015Z,20.93
2022-08-22T11:51:24.752Z,22.16
2022-08-22T11:54:06.681Z,21.69
2022-08-22T11:56:45.176Z,21.08
2022-08-22T11:59:30.633Z,21.85
2022-08-22T12:02:04.899Z,20.87
2022-08-22T12:04:45.873Z,20.32
2022-08-22T12:07:17.681Z,20.06
2022-08-22T12:10:02.523Z,21.15
2022-08-22T12:12:40.166Z,20.96
2022-08-22T12:15:33.446Z,21.05
2022-08-22T12:18:21.697Z,21.06
2022-08-22T12:21:06.762Z,19.49
2022-08-22T12:23:49.167Z,19.04
2022-08-22T12:26:28.278Z,19.19
2022-08-22T12:29:44.869Z,20.76
2022-08-22T12:32:44.069Z,19.13
2022-08-22T12:35:34.956Z,20.06
2022-08-22T12:38:29.362Z,18.14
2022-08-22T12:41:12.934Z,19.21
2022-08-22T12:43:57.907Z,19.60
2022-08-22T12:46:47.291Z,17.16
2022-08-22T12:49:27.892Z,17.90
2022-08-22T12:52:28.640Z,19.18
2022-08-22T12:55:27.125Z,19.49
2022-08-22T12:58:42.816Z,19.65
2022-08-22T13:01:11.402Z,17.25
2022-08-22T13:03:47.356Z,17.46
2022-08-22T13:06:35.749Z,17.10
2022-08-22T13:09:11.795Z,16.64
2022-08-22T13:11:45.211Z,17.25
2022-08-22T13:14:13.943Z,17.11
2022-08-22T13:16:50.994Z,17.18
2022-08-22T13:19:35.299Z,17.62
2022-08-22T13:22:11.608Z,18.06
2022-08-22T13:24:51.723Z,17.95
2022-08-22T13:27:33.740Z,18.06
2022-08-22T13:30:07.085Z,17.04
2022-08-22T13:32:48.074Z,17.83
2022-08-22T13:35:23.859Z,19.55
2022-08-22T13:37:57.360Z,17.48
2022-08-22T13:40:31.708Z,18.18
2022-08-22T13:43:03.357Z,18.54
2022-08-22T13:45:32.853Z,17.82
2022-08-22T13:48:13.038Z,17.85
2022-08-22T13:51:01.600Z,19.08
2022-08-22T13:53:48.954Z,18.29
2022-08-22T13:56:31.866Z,17.71
2022-08-22T13:59:03.317Z,19.44
2022-08-22T14:01:59.791Z,18.69
2022-08-22T14:04:36.806Z,18.12
2022-08-22T14:07:07.277Z,17.14
2022-08-22T14:09:54.403Z,18.29
2022-08-22T14:12:28.769Z,17.29
2022-08-22T14:15:06.033Z,17.21
2022-08-22T14:17:44.025Z,17.92
2022-08-22T14:20:32.581Z,16.53
2022-08-22T14:23:08.944Z,17.30
2022-08-22T14:25:39.155Z,17.01
2022-08-22T14:28:30.997Z,17.82
2022-08-22T14:31:07.189Z,16.90
2022-08-22T14:33:39.697Z,17.70
2022-08-22T14:36:18.966Z,17.49
2022-08-22T14:39:08.274Z,17.71
2022-08-22T14:41:55.552Z,17.16
2022-08-22T14:44:33.470Z,17.03
2022-08-22T14:47:04.695Z,16.54
2022-08-22T14:49:57.925Z,16.74
2022-08-22T14:52:41.481Z,17.83
2022-08-22T14:55:20.305Z,17.56
2022-08-22T14:58:03.280Z,17.44
2022-08-22T15:00:34.334Z,16.93
2022-08-22T15:03:13.614Z,17.31
2022-08-22T15:05:48.589Z,17.76
2022-08-22T15:08:27.408Z,17.69
2022-08-22T15:11:06.390Z,17.87
2022-08-22T15:13:36.676Z,16.65
2022-08-22T15:16:16.139Z,18.02
2022-08-22T15:18:51.739Z,17.43
2022-08-22T15:21:24.555Z,18.62
2022-08-22T15:23:56.506Z,17.12
2022-08-22T15:26:30.654Z,16.98
2022-08-22T15:29:25.247Z,18.15
2022-08-22T15:32:02.963Z,16.99
2022-08-22T15:34:41.921Z,17.50
2022-08-22T15:37:17.639Z,17.58
2022-08-22T15:40:02.986Z,17.80
2022-08-22T15:42:48.701Z,17.09
2022-08-22T15:45:38.334Z,17.70
2022-08-22T15:48:13.487Z,17.75
2022-08-22T15:50:55.881Z,17.16
2022-08-22T15:53:30.075Z,17.37
2022-08-22T15:56:05.077Z,17.80
2022-08-22T15:58:33.481Z,17.26
2022-08-22T16:01:22.321Z,17.66
2022-08-22T16:04:12.849Z,18.12
2022-08-22T16:06:46.922Z,17.57
2022-08-22T16:09:32.019Z,18.11
2022-08-22T16:12:04.246Z,17.63
2022-08-22T16:14:33.785Z,17.66
2022-08-22T16:17:27.981Z,18.03
2022-08-22T16:20:10.020Z,18.35
2022-08-22T16:22:58.452Z,17.99
2022-08-22T16:25:47.544Z,18.54
2022-08-22T16:28:56.432Z,18.27
2022-08-22T16:31:27.427Z,18.33
2022-08-22T16:33:57.438Z,17.90
2022-08-22T16:36:37.821Z,18.44
2022-08-22T16:39:24.577Z,18.84
2022-08-22T16:42:23.052Z,18.29
2022-08-22T16:45:14.906Z,18.55
2022-08-22T16:47:52.675Z,18.17
2022-08-22T16:50:35.623Z,18.36
2022-08-22T16:53:05.694Z,18.27
2022-08-22T16:55:35.773Z,18.84
2022-08-22T16:58:21.143Z,18.98
2022-08-22T17:00:58.070Z,19.43
2022-08-22T17:03:53.273Z,19.05
2022-08-22T17:06:28.425Z,19.14
2022-08-22T17:09:32.342Z,19.40
2022-08-22T17:12:17.506Z,19.65
2022-08-22T17:14:54.721Z,19.57
2022-08-22T17:17:24.106Z,19.53
2022-08-22T17:20:21.798Z,19.74
2022-08-22T17:23:08.995Z,20.39
2022-08-22T17:25:51.899Z,20.58
2022-08-22T17:28:40.534Z,20.52
2022-08-22T17:31:46.776Z,20.36
2022-08-22T17:34:34.831Z,20.56
2022-08-22T17:37:26.150Z,20.58
2022-08-22T17:40:09.939Z,20.78
2022-08-22T17:43:21.569Z,20.58
2022-08-22T17:46:22.832Z,20.91
2022-08-22T17:48:53.867Z,21.35
2022-08-22T17:52:06.514Z,20.77
2022-08-22T17:54:55.280Z,21.49
2022-08-22T17:57:35.510Z,21.49
2022-08-22T18:00:11.307Z,21.80
2022-08-22T18:02:40.605Z,22.19
2022-08-22T18:05:17.452Z,22.50
2022-08-22T18:08:03.024Z,22.27
2022-08-22T18:10:45.179Z,22.12
2022-08-22T18:13:14.508Z,22.88
2022-08-22T18:15:47.260Z,22.84
2022-08-22T18:18:55.612Z,22.65
2022-08-22T18:21:32.097Z,22.97
2022-08-22T18:23:58.493Z,22.08
2022-08-22T18:26:39.853Z,23.06
2022-08-22T18:29:16.253Z,23.96
2022-08-22T18:32:04.069Z,24.20
2022-08-22T18:34:42.673Z,24.25
2022-08-22T18:37:17.313Z,24.81
2022-08-22T18:39:59.845Z,24.87
2022-08-22T18:42:31.729Z,26.29
2022-08-22T18:44:58.241Z,26.12
2022-08-22T18:47:34.562Z,25.12
2022-08-22T18:50:24.361Z,25.78
2022-08-22T18:52:53.417Z,25.14
2022-08-22T18:55:56.241Z,24.32
2022-08-22T18:58:40.741Z,24.84
2022-08-22T19:01:41.337Z,25.09
2022-08-22T19:04:35.218Z,26.10
2022-08-22T19:07:28.161Z,25.20
2022-08-22T19:10:09.702Z,26.56
2022-08-22T19:12:54.924Z,25.42
2022-08-22T19:15:34.486Z,26.21
2022-08-22T19:18:28.454Z,25.88
2022-08-22T19:21:32.255Z,26.54
2022-08-22T19:23:59.295Z,28.71
2022-08-22T19:26:30.587Z,28.42
2022-08-22T19:29:14.332Z,28.65
2022-08-22T19:31:44.527Z,29.59
2022-08-22T19:34:35.221Z,28.27
2022-08-22T19:37:33.314Z,27.69
2022-08-22T19:40:07.011Z,28.76
2022-08-22T19:42:36.913Z,28.88
2022-08-22T19:45:30.672Z,27.22
2022-08-22T19:48:13.913Z,28.22
2022-08-22T19:50:42.978Z,30.83
2022-08-22T19:53:30.993Z,28.58
2022-08-22T19:56:20.874Z,31.39
2022-08-22T19:58:59.549Z,30.05
2022-08-22T20:01:56.237Z,28.65
2022-08-22T20:04:47.241Z,29.87
2022-08-22T20:07:25.713Z,30.79
2022-08-22T20:10:19.771Z,29.94
2022-08-22T20:12:52.142Z,30.36
2022-08-22T20:15:22.555Z,30.59
2022-08-22T20:20:55.350Z,31.49
2022-08-22T20:23:28.333Z,31.61
2022-08-22T20:25:57.116Z,32.32
2022-08-22T20:28:23.598Z,32.25
2022-08-22T20:30:58.164Z,31.26
2022-08-22T20:33:29.490Z,32.32
2022-08-22T20:36:02.419Z,31.38
2022-08-22T20:38:39.635Z,30.98
2022-08-22T20:41:22.587Z,31.21
2022-08-22T20:43:56.797Z,32.14
2022-08-22T20:46:53.171Z,30.54
2022-08-22T20:49:26.460Z,31.92
2022-08-22T20:52:01.821Z,32.47
2022-08-22T20:54:32.142Z,32.67
2022-08-22T20:57:13.934Z,31.32
2022-08-22T20:59:42.713Z,32.59
2022-08-22T21:02:15.407Z,32.47
2022-08-22T21:05:02.382Z,31.09
2022-08-22T21:07:38.151Z,31.64
2022-08-22T21:10:33.979Z,34.14
2022-08-22T21:13:03.405Z,33.61
2022-08-22T21:15:35.610Z,33.44
2022-08-22T21:18:02.465Z,32.51
2022-08-22T21:20:33.457Z,31.96
2022-08-22T21:23:03.241Z,34.18
2022-08-22T21:25:30.601Z,35.21
2022-08-22T21:27:57.161Z,35.06
2022-08-22T21:30:26.852Z,33.75
2022-08-22T21:32:56.116Z,33.77
2022-08-22T21:35:28.309Z,33.32
2022-08-22T21:37:56.746Z,33.88
2022-08-22T21:40:33.594Z,32.92
2022-08-22T21:43:07.881Z,31.08
2022-08-22T21:45:37.353Z,33.50
2022-08-22T21:48:44.028Z,32.29
2022-08-22T21:51:40.786Z,32.41
2022-08-22T21:54:25.728Z,32.94
2022-08-22T21:56:54.410Z,34.33
2022-08-22T21:59:52.287Z,33.49
2022-08-22T22:02:37.908Z,33.25
2022-08-22T22:05:12.489Z,34.33
2022-08-22T22:07:42.049Z,34.27
2022-08-22T22:10:11.911Z,34.12
2022-08-22T22:12:41.228Z,34.33
2022-08-22T22:15:09.493Z,34.22
2022-08-22T22:17:36.042Z,34.52
2022-08-22T22:20:03.663Z,34.57
2022-08-22T22:22:30.173Z,35.05
2022-08-22T22:24:56.751Z,34.64
2022-08-22T22:27:23.290Z,34.73
2022-08-22T22:29:49.802Z,34.07
2022-08-22T22:32:16.318Z,34.61
2022-08-22T22:34:42.794Z,34.67
2022-08-22T22:37:11.842Z,35.52
2022-08-22T22:39:38.882Z,35.28
2022-08-22T22:42:05.615Z,35.41
2022-08-22T22:44:32.506Z,35.18
2022-08-22T22:47:02.188Z,35.41
2022-08-22T22:49:31.077Z,35.69
2022-08-22T22:51:59.585Z,35.37
2022-08-22T22:54:27.139Z,34.96
2022-08-22T22:56:54.030Z,35.11
2022-08-22T22:59:24.797Z,35.46
2022-08-22T23:02:15.273Z,34.35
2022-08-22T23:04:44.241Z,35.67
2022-08-22T23:07:12.374Z,34.93
2022-08-22T23:09:44.792Z,35.54
2022-08-22T23:12:13.955Z,36.18
2022-08-22T23:14:40.869Z,35.64
2022-08-22T23:17:07.484Z,35.65
2022-08-22T23:19:34.251Z,36.29
2022-08-22T23:22:01.519Z,35.61
2022-08-22T23:24:31.142Z,35.71
2022-08-22T23:26:58.931Z,35.81
2022-08-22T23:29:26.366Z,35.55
2022-08-22T23:31:58.313Z,35.97
2022-08-22T23:34:32.968Z,35.74
2022-08-22T23:37:01.903Z,36.04
2022-08-22T23:39:32.873Z,36.06
2022-08-22T23:42:00.305Z,36.06
2022-08-22T23:44:31.785Z,35.99
2022-08-22T23:46:59.628Z,36.12
2022-08-22T23:49:27.449Z,36.36
2022-08-22T23:51:54.449Z,36.26
2022-08-22T23:54:21.403Z,36.35
2022-08-22T23:56:50.716Z,36.63
2022-08-22T23:59:20.749Z,35.78
